createdAt,value
2019-03-30T00:01:18.906Z,9.40
2019-03-30T00:03:47.354Z,9.40
2019-03-30T00:06:15.775Z,9.30
2019-03-30T00:08:44.211Z,9.30
2019-03-30T00:11:12.682Z,9.30
2019-03-30T00:13:41.113Z,9.20
2019-03-30T00:16:10.257Z,9.10
2019-03-30T00:18:41.174Z,9.10
2019-03-30T00:21:08.852Z,9.10
2019-03-30T00:23:37.305Z,9.10
2019-03-30T00:26:05.707Z,9.10
2019-03-30T00:28:34.438Z,9.10
2019-03-30T00:31:02.859Z,9.00
2019-03-30T00:33:31.294Z,8.90
2019-03-30T00:35:59.708Z,8.90
2019-03-30T00:38:28.137Z,8.90
2019-03-30T00:40:56.565Z,8.80
2019-03-30T00:43:24.974Z,8.80
2019-03-30T00:45:53.385Z,8.70
2019-03-30T00:48:21.833Z,8.70
2019-03-30T00:50:50.257Z,8.80
2019-03-30T00:53:18.699Z,8.70
2019-03-30T00:55:47.229Z,8.80
2019-03-30T00:58:16.370Z,8.80
2019-03-30T01:00:45.058Z,8.80
2019-03-30T01:03:16.420Z,8.90
2019-03-30T01:05:44.982Z,8.90
2019-03-30T01:08:13.414Z,8.80
2019-03-30T01:10:41.842Z,8.70
2019-03-30T01:13:10.262Z,8.60
2019-03-30T01:15:38.695Z,8.60
2019-03-30T01:18:07.132Z,8.60
2019-03-30T01:20:35.566Z,8.60
2019-03-30T01:23:04.008Z,8.50
2019-03-30T01:25:32.468Z,8.50
2019-03-30T01:28:00.914Z,8.50
2019-03-30T01:30:29.350Z,8.50
2019-03-30T01:32:57.785Z,8.50
2019-03-30T01:35:26.282Z,8.40
2019-03-30T01:37:54.841Z,8.40
2019-03-30T01:40:23.293Z,8.40
2019-03-30T01:42:51.784Z,8.40
2019-03-30T01:45:20.248Z,8.50
2019-03-30T01:47:48.666Z,8.40
2019-03-30T01:50:18.233Z,8.40
2019-03-30T01:52:47.199Z,8.40
2019-03-30T01:55:15.801Z,8.40
2019-03-30T01:57:44.469Z,8.30
2019-03-30T02:00:13.307Z,8.30
2019-03-30T02:02:41.738Z,8.30
2019-03-30T02:05:10.428Z,8.30
2019-03-30T02:07:38.844Z,8.30
2019-03-30T02:10:08.330Z,8.30
2019-03-30T02:12:36.788Z,8.20
2019-03-30T02:15:06.660Z,8.20
2019-03-30T02:17:35.088Z,8.10
2019-03-30T02:20:05.530Z,8.10
2019-03-30T02:22:33.942Z,8.00
2019-03-30T02:25:02.387Z,7.90
2019-03-30T02:27:30.809Z,8.00
2019-03-30T02:29:59.253Z,8.00
2019-03-30T02:32:27.680Z,7.90
2019-03-30T02:34:56.121Z,7.90
2019-03-30T02:37:24.560Z,7.80
2019-03-30T02:39:52.986Z,7.90
2019-03-30T02:42:21.494Z,7.80
2019-03-30T02:44:49.922Z,7.80
2019-03-30T02:47:18.365Z,7.90
2019-03-30T02:49:46.798Z,8.00
2019-03-30T02:52:15.241Z,8.00
2019-03-30T02:54:43.664Z,7.90
2019-03-30T02:57:12.096Z,7.80
2019-03-30T02:59:40.545Z,7.80
2019-03-30T03:02:08.973Z,7.80
2019-03-30T03:04:37.478Z,7.90
2019-03-30T03:07:05.920Z,7.70
2019-03-30T03:09:34.342Z,7.70
2019-03-30T03:12:02.765Z,7.60
2019-03-30T03:14:31.206Z,7.70
2019-03-30T03:16:59.788Z,7.60
2019-03-30T03:19:28.242Z,7.60
2019-03-30T03:21:56.757Z,7.60
2019-03-30T03:24:25.259Z,7.60
2019-03-30T03:26:54.645Z,7.70
2019-03-30T03:29:23.086Z,7.60
2019-03-30T03:31:51.553Z,7.70
2019-03-30T03:34:20.677Z,7.70
2019-03-30T03:36:49.111Z,7.70
2019-03-30T03:39:17.559Z,7.70
2019-03-30T03:41:46.706Z,7.60
2019-03-30T03:44:15.128Z,7.40
2019-03-30T03:46:43.603Z,7.30
2019-03-30T03:49:12.061Z,7.30
2019-03-30T03:51:40.941Z,7.30
2019-03-30T03:54:09.528Z,7.20
2019-03-30T03:56:39.507Z,7.10
2019-03-30T03:59:10.373Z,7.00
2019-03-30T04:01:40.551Z,7.00
2019-03-30T04:04:10.605Z,7.00
2019-03-30T04:06:40.161Z,7.00
2019-03-30T04:09:08.766Z,6.90
2019-03-30T04:11:39.805Z,6.90
2019-03-30T04:14:10.877Z,6.80
2019-03-30T04:16:39.397Z,6.70
2019-03-30T04:19:07.807Z,6.70
2019-03-30T04:21:44.250Z,6.70
2019-03-30T04:24:06.506Z,6.70
2019-03-30T04:26:35.044Z,6.60
2019-03-30T04:29:03.561Z,6.70
2019-03-30T04:31:32.010Z,6.60
2019-03-30T04:34:00.453Z,6.60
2019-03-30T04:36:28.890Z,6.50
2019-03-30T04:38:57.301Z,6.60
2019-03-30T04:41:25.758Z,6.50
2019-03-30T04:43:54.193Z,6.50
2019-03-30T04:46:22.622Z,6.50
2019-03-30T04:48:51.065Z,6.60
2019-03-30T04:51:19.517Z,6.50
2019-03-30T04:53:47.955Z,6.30
2019-03-30T04:56:16.395Z,6.40
2019-03-30T04:58:44.818Z,6.30
2019-03-30T05:01:13.236Z,6.30
2019-03-30T05:03:41.663Z,6.30
2019-03-30T05:06:10.092Z,6.30
2019-03-30T05:08:38.514Z,6.30
2019-03-30T05:11:06.936Z,6.20
2019-03-30T05:13:39.003Z,6.20
2019-03-30T05:16:07.467Z,6.20
2019-03-30T05:18:35.951Z,6.10
2019-03-30T05:21:04.388Z,6.10
2019-03-30T05:23:34.451Z,6.00
2019-03-30T05:26:03.218Z,6.00
2019-03-30T05:28:31.668Z,6.10
2019-03-30T05:31:00.160Z,6.10
2019-03-30T05:33:28.580Z,6.10
2019-03-30T05:35:57.010Z,6.20
2019-03-30T05:38:25.424Z,6.20
2019-03-30T05:40:53.919Z,6.20
2019-03-30T05:43:22.344Z,6.20
2019-03-30T05:45:50.774Z,6.20
2019-03-30T05:48:19.276Z,6.20
2019-03-30T05:50:47.685Z,6.30
2019-03-30T05:53:17.016Z,6.30
2019-03-30T05:55:45.509Z,6.40
2019-03-30T05:58:13.924Z,6.30
2019-03-30T06:00:42.358Z,6.30
2019-03-30T06:03:10.813Z,6.30
2019-03-30T06:05:39.240Z,6.30
2019-03-30T06:08:07.650Z,6.30
2019-03-30T06:10:38.657Z,6.40
2019-03-30T06:13:06.250Z,6.40
2019-03-30T06:15:34.680Z,6.50
2019-03-30T06:18:03.117Z,6.50
2019-03-30T06:20:31.533Z,6.40
2019-03-30T06:22:59.975Z,6.60
2019-03-30T06:25:28.384Z,6.60
2019-03-30T06:27:56.813Z,6.60
2019-03-30T06:30:27.088Z,6.60
2019-03-30T06:32:55.765Z,6.70
2019-03-30T06:35:25.221Z,6.80
2019-03-30T06:37:53.653Z,6.80
2019-03-30T06:40:22.070Z,6.90
2019-03-30T06:42:50.512Z,6.90
2019-03-30T06:45:18.956Z,7.00
2019-03-30T06:47:47.655Z,7.00
2019-03-30T06:50:16.305Z,7.10
2019-03-30T06:52:56.629Z,7.10
2019-03-30T06:55:15.097Z,7.20
2019-03-30T06:57:43.523Z,7.20
2019-03-30T07:00:12.586Z,7.30
2019-03-30T07:02:42.081Z,7.40
2019-03-30T07:05:10.836Z,7.40
2019-03-30T07:07:39.781Z,7.50
2019-03-30T07:10:08.464Z,7.50
2019-03-30T07:12:40.055Z,7.60
2019-03-30T07:15:09.809Z,7.60
2019-03-30T07:17:41.313Z,7.70
2019-03-30T07:20:12.815Z,7.90
2019-03-30T07:22:41.254Z,7.90
2019-03-30T07:25:09.704Z,8.00
2019-03-30T07:27:38.144Z,8.00
2019-03-30T07:30:09.649Z,8.10
2019-03-30T07:32:38.085Z,8.20
2019-03-30T07:35:07.248Z,8.30
2019-03-30T07:37:35.660Z,8.40
2019-03-30T07:40:06.039Z,8.40
2019-03-30T07:42:34.465Z,8.60
2019-03-30T07:45:03.669Z,8.60
2019-03-30T07:47:32.383Z,8.70
2019-03-30T07:50:00.833Z,8.90
2019-03-30T07:52:29.266Z,9.00
2019-03-30T07:54:57.718Z,9.10
2019-03-30T07:57:26.121Z,9.20
2019-03-30T07:59:54.562Z,9.30
2019-03-30T08:02:22.987Z,9.40
2019-03-30T08:04:51.430Z,9.50
2019-03-30T08:07:19.850Z,9.70
2019-03-30T08:09:48.302Z,9.70
2019-03-30T08:12:16.718Z,9.90
2019-03-30T08:14:45.423Z,10.00
2019-03-30T08:17:13.978Z,10.10
2019-03-30T08:19:42.457Z,10.20
2019-03-30T08:22:10.874Z,10.30
2019-03-30T08:24:39.318Z,10.30
2019-03-30T08:27:07.750Z,10.40
2019-03-30T08:29:36.182Z,10.50
2019-03-30T08:32:04.874Z,10.60
2019-03-30T08:34:33.376Z,10.70
2019-03-30T08:37:01.816Z,10.70
2019-03-30T08:39:30.232Z,10.70
2019-03-30T08:41:58.667Z,10.90
2019-03-30T08:44:27.176Z,10.90
2019-03-30T08:46:55.605Z,11.00
2019-03-30T08:49:24.048Z,11.10
2019-03-30T08:51:52.468Z,11.10
2019-03-30T08:54:20.909Z,11.20
2019-03-30T08:56:49.346Z,11.20
2019-03-30T08:59:17.865Z,11.30
2019-03-30T09:01:46.308Z,11.40
2019-03-30T09:04:14.743Z,11.40
2019-03-30T09:06:43.167Z,11.50
2019-03-30T09:09:11.593Z,11.50
2019-03-30T09:11:43.249Z,11.50
2019-03-30T09:14:10.196Z,11.60
2019-03-30T09:16:38.634Z,11.60
2019-03-30T09:19:07.065Z,11.70
2019-03-30T09:21:35.507Z,11.70
2019-03-30T09:24:09.917Z,11.80
2019-03-30T09:26:34.206Z,11.90
2019-03-30T09:29:02.625Z,11.90
2019-03-30T09:31:31.159Z,12.00
2019-03-30T09:33:59.603Z,12.00
2019-03-30T09:36:28.084Z,12.20
2019-03-30T09:38:56.554Z,12.30
2019-03-30T09:41:24.993Z,12.40
2019-03-30T09:43:53.412Z,12.40
2019-03-30T09:46:21.846Z,12.60
2019-03-30T09:48:50.278Z,12.70
2019-03-30T09:51:18.718Z,12.70
2019-03-30T09:53:47.164Z,12.80
2019-03-30T09:56:15.584Z,12.90
2019-03-30T09:58:44.005Z,12.90
2019-03-30T10:01:12.451Z,13.10
2019-03-30T10:03:40.883Z,13.20
2019-03-30T10:06:09.321Z,13.30
2019-03-30T10:08:37.760Z,13.50
2019-03-30T10:11:06.193Z,13.70
2019-03-30T10:13:34.693Z,13.90
2019-03-30T10:16:03.125Z,14.00
2019-03-30T10:18:31.556Z,14.00
2019-03-30T10:20:59.985Z,14.30
2019-03-30T10:23:28.402Z,14.40
2019-03-30T10:25:56.835Z,14.50
2019-03-30T10:28:25.257Z,14.60
2019-03-30T10:30:53.710Z,14.60
2019-03-30T10:33:22.139Z,14.80
2019-03-30T10:35:50.572Z,14.90
2019-03-30T10:38:19.001Z,15.10
2019-03-30T10:40:47.586Z,15.10
2019-03-30T10:43:16.018Z,15.30
2019-03-30T10:45:44.450Z,15.40
2019-03-30T10:48:12.889Z,15.60
2019-03-30T10:50:41.322Z,15.70
2019-03-30T10:53:09.759Z,15.80
2019-03-30T10:55:38.201Z,15.90
2019-03-30T10:58:06.627Z,16.10
2019-03-30T11:00:38.271Z,16.10
2019-03-30T11:03:06.756Z,16.10
2019-03-30T11:05:35.205Z,16.20
2019-03-30T11:08:03.649Z,16.40
2019-03-30T11:10:32.066Z,16.50
2019-03-30T11:13:00.510Z,16.70
2019-03-30T11:15:28.938Z,16.80
2019-03-30T11:17:57.376Z,16.80
2019-03-30T11:20:25.803Z,17.00
2019-03-30T11:22:54.234Z,17.00
2019-03-30T11:25:22.660Z,17.10
2019-03-30T11:27:51.347Z,17.40
2019-03-30T11:30:19.771Z,17.60
2019-03-30T11:32:48.202Z,17.50
2019-03-30T11:35:16.642Z,17.60
2019-03-30T11:37:45.088Z,17.50
2019-03-30T11:40:13.660Z,17.50
2019-03-30T11:42:42.096Z,17.70
2019-03-30T11:45:10.705Z,17.50
2019-03-30T11:47:39.140Z,17.70
2019-03-30T11:50:07.707Z,17.90
2019-03-30T11:52:36.291Z,18.30
2019-03-30T11:55:21.079Z,18.50
2019-03-30T11:57:38.363Z,18.60
2019-03-30T12:00:07.992Z,18.40
2019-03-30T12:02:38.217Z,18.10
2019-03-30T12:05:08.980Z,18.20
2019-03-30T12:07:37.725Z,18.70
2019-03-30T12:10:06.484Z,19.00
2019-03-30T12:12:37.399Z,19.10
2019-03-30T12:15:07.482Z,19.00
2019-03-30T12:17:40.725Z,19.10
2019-03-30T12:20:08.006Z,18.70
2019-03-30T12:22:36.442Z,18.80
2019-03-30T12:25:05.767Z,19.30
2019-03-30T12:27:34.292Z,19.60
2019-03-30T12:30:02.781Z,19.90
2019-03-30T12:32:31.310Z,19.70
2019-03-30T12:34:59.758Z,19.60
2019-03-30T12:37:28.266Z,19.90
2019-03-30T12:39:58.272Z,19.80
2019-03-30T12:42:27.002Z,19.20
2019-03-30T12:44:55.734Z,19.30
2019-03-30T12:47:24.166Z,19.00
2019-03-30T12:49:52.590Z,19.00
2019-03-30T12:52:21.030Z,19.30
2019-03-30T12:54:49.462Z,19.80
2019-03-30T12:57:17.892Z,20.10
2019-03-30T12:59:46.326Z,20.00
2019-03-30T13:02:14.765Z,20.30
2019-03-30T13:04:43.281Z,20.60
2019-03-30T13:07:11.696Z,20.60
2019-03-30T13:09:40.130Z,20.80
2019-03-30T13:12:08.815Z,20.00
2019-03-30T13:14:38.188Z,20.20
2019-03-30T13:17:06.705Z,20.50
2019-03-30T13:19:35.204Z,20.20
2019-03-30T13:22:03.693Z,20.40
2019-03-30T13:24:33.649Z,20.30
2019-03-30T13:27:04.245Z,20.40
2019-03-30T13:29:32.949Z,19.90
2019-03-30T13:32:01.359Z,20.20
2019-03-30T13:34:30.833Z,20.60
2019-03-30T13:36:59.254Z,20.50
2019-03-30T13:39:29.938Z,20.40
2019-03-30T13:41:58.517Z,20.60
2019-03-30T13:44:26.937Z,20.00
2019-03-30T13:46:56.989Z,20.10
2019-03-30T13:49:29.490Z,19.90
2019-03-30T13:51:58.280Z,19.90
2019-03-30T13:54:26.735Z,20.60
2019-03-30T13:56:55.223Z,20.40
2019-03-30T13:59:23.654Z,20.70
2019-03-30T14:01:52.070Z,20.90
2019-03-30T14:04:20.506Z,20.80
2019-03-30T14:06:48.927Z,21.40
2019-03-30T14:09:17.371Z,21.60
2019-03-30T14:11:45.798Z,21.70
2019-03-30T14:14:14.225Z,21.80
2019-03-30T14:16:42.925Z,21.80
2019-03-30T14:19:11.368Z,21.80
2019-03-30T14:21:39.805Z,21.70
2019-03-30T14:24:08.243Z,21.10
2019-03-30T14:26:36.742Z,21.50
2019-03-30T14:29:05.191Z,21.20
2019-03-30T14:31:33.607Z,21.90
2019-03-30T14:34:02.047Z,21.40
2019-03-30T14:36:30.469Z,20.70
2019-03-30T14:38:58.909Z,21.00
2019-03-30T14:41:27.322Z,20.80
2019-03-30T14:43:57.998Z,20.50
2019-03-30T14:46:26.242Z,20.10
2019-03-30T14:48:54.677Z,20.20
2019-03-30T14:51:23.099Z,20.20
2019-03-30T14:53:51.541Z,20.80
2019-03-30T14:56:19.956Z,21.30
2019-03-30T14:58:48.407Z,20.40
2019-03-30T15:01:16.896Z,21.40
2019-03-30T15:03:45.317Z,20.60
2019-03-30T15:06:13.765Z,21.20
2019-03-30T15:08:42.183Z,21.20
2019-03-30T15:11:10.613Z,21.30
2019-03-30T15:13:39.045Z,20.90
2019-03-30T15:16:07.480Z,20.30
2019-03-30T15:18:35.911Z,20.80
2019-03-30T15:21:04.335Z,21.20
2019-03-30T15:23:32.759Z,21.40
2019-03-30T15:26:01.214Z,21.20
2019-03-30T15:28:29.635Z,21.50
2019-03-30T15:30:58.083Z,21.60
2019-03-30T15:33:26.803Z,20.80
2019-03-30T15:35:55.290Z,21.20
2019-03-30T15:38:23.708Z,21.00
2019-03-30T15:40:55.456Z,21.50
2019-03-30T15:43:37.181Z,21.80
2019-03-30T15:45:54.106Z,21.20
2019-03-30T15:48:22.529Z,21.30
2019-03-30T15:50:52.468Z,20.80
2019-03-30T15:53:20.879Z,20.90
2019-03-30T15:55:49.354Z,21.80
2019-03-30T15:58:17.826Z,21.10
2019-03-30T16:00:46.276Z,21.50
2019-03-30T16:03:14.685Z,21.20
2019-03-30T16:05:43.127Z,20.90
2019-03-30T16:08:11.629Z,21.50
2019-03-30T16:10:40.075Z,21.60
2019-03-30T16:13:08.506Z,21.00
2019-03-30T16:15:36.939Z,20.60
2019-03-30T16:18:05.370Z,20.30
2019-03-30T16:20:33.799Z,20.50
2019-03-30T16:23:02.212Z,20.70
2019-03-30T16:25:30.658Z,20.50
2019-03-30T16:27:59.084Z,21.40
2019-03-30T16:30:27.503Z,21.80
2019-03-30T16:32:55.942Z,21.70
2019-03-30T16:35:24.380Z,22.00
2019-03-30T16:37:52.821Z,21.30
2019-03-30T16:40:21.241Z,21.80
2019-03-30T16:42:49.705Z,21.90
2019-03-30T16:45:18.134Z,22.00
2019-03-30T16:47:46.653Z,21.70
2019-03-30T16:50:16.611Z,21.80
2019-03-30T16:52:45.065Z,21.60
2019-03-30T16:55:13.512Z,21.60
2019-03-30T16:57:44.119Z,21.30
2019-03-30T17:00:13.345Z,20.30
2019-03-30T17:02:41.799Z,19.90
2019-03-30T17:05:11.886Z,19.70
2019-03-30T17:07:40.393Z,19.80
2019-03-30T17:10:09.374Z,19.70
2019-03-30T17:12:37.823Z,19.80
2019-03-30T17:15:06.775Z,19.80
2019-03-30T17:17:35.216Z,19.50
2019-03-30T17:20:04.978Z,19.50
2019-03-30T17:22:33.411Z,19.50
2019-03-30T17:25:01.837Z,19.10
2019-03-30T17:27:30.302Z,18.90
2019-03-30T17:29:58.753Z,18.60
2019-03-30T17:32:27.177Z,18.40
2019-03-30T17:34:55.592Z,18.30
2019-03-30T17:37:24.041Z,18.40
2019-03-30T17:39:52.473Z,18.40
2019-03-30T17:42:20.899Z,18.10
2019-03-30T17:44:49.326Z,17.90
2019-03-30T17:47:17.838Z,17.80
2019-03-30T17:49:46.254Z,18.00
2019-03-30T17:52:14.686Z,17.90
2019-03-30T17:54:43.124Z,17.80
2019-03-30T17:57:11.541Z,17.80
2019-03-30T17:59:39.986Z,17.80
2019-03-30T18:02:08.425Z,17.70
2019-03-30T18:04:38.964Z,17.50
2019-03-30T18:07:07.043Z,17.30
2019-03-30T18:09:35.478Z,17.00
2019-03-30T18:12:03.972Z,16.80
2019-03-30T18:14:32.419Z,16.80
2019-03-30T18:17:00.826Z,16.90
2019-03-30T18:19:29.271Z,16.80
2019-03-30T18:21:57.690Z,16.70
2019-03-30T18:24:26.125Z,16.80
2019-03-30T18:26:54.567Z,16.60
2019-03-30T18:29:23.000Z,16.50
2019-03-30T18:31:51.492Z,16.20
2019-03-30T18:34:19.921Z,16.10
2019-03-30T18:36:50.877Z,16.00
2019-03-30T18:39:19.858Z,15.90
2019-03-30T18:41:48.267Z,15.90
2019-03-30T18:44:17.566Z,15.90
2019-03-30T18:46:45.976Z,15.90
2019-03-30T18:49:14.430Z,15.80
2019-03-30T18:51:44.087Z,15.80
2019-03-30T18:54:12.691Z,15.70
2019-03-30T18:56:41.113Z,15.60
2019-03-30T18:59:09.544Z,15.50
2019-03-30T19:01:37.969Z,15.30
2019-03-30T19:04:06.405Z,15.10
2019-03-30T19:06:34.813Z,14.90
2019-03-30T19:09:04.990Z,14.80
2019-03-30T19:11:35.021Z,14.80
2019-03-30T19:14:03.464Z,14.80
2019-03-30T19:16:31.879Z,14.80
2019-03-30T19:19:00.314Z,14.80
2019-03-30T19:21:28.730Z,14.80
2019-03-30T19:23:57.176Z,14.50
2019-03-30T19:26:25.608Z,14.50
2019-03-30T19:28:56.519Z,14.60
2019-03-30T19:31:27.561Z,14.40
2019-03-30T19:34:01.862Z,14.40
2019-03-30T19:36:30.309Z,14.50
2019-03-30T19:38:58.723Z,14.30
2019-03-30T19:41:27.162Z,14.20
2019-03-30T19:43:55.643Z,14.10
2019-03-30T19:46:26.663Z,13.80
2019-03-30T19:48:54.255Z,13.70
2019-03-30T19:51:22.677Z,13.80
2019-03-30T19:53:53.458Z,13.60
2019-03-30T19:56:21.885Z,13.70
2019-03-30T19:58:50.309Z,13.50
2019-03-30T20:01:18.743Z,13.40
2019-03-30T20:03:47.178Z,13.40
2019-03-30T20:06:15.614Z,13.40
2019-03-30T20:08:44.031Z,13.50
2019-03-30T20:11:12.454Z,13.10
2019-03-30T20:13:40.975Z,13.10
2019-03-30T20:16:09.493Z,13.20
2019-03-30T20:18:38.088Z,13.00
2019-03-30T20:21:06.523Z,12.90
2019-03-30T20:23:34.972Z,12.90
2019-03-30T20:26:03.495Z,12.90
2019-03-30T20:28:31.998Z,12.80
2019-03-30T20:31:00.523Z,12.70
2019-03-30T20:33:29.097Z,12.70
2019-03-30T20:35:57.602Z,12.80
2019-03-30T20:38:26.027Z,12.80
2019-03-30T20:40:54.509Z,12.70
2019-03-30T20:43:23.881Z,12.70
2019-03-30T20:45:52.316Z,12.60
2019-03-30T20:48:20.782Z,12.70
2019-03-30T20:50:49.210Z,12.70
2019-03-30T20:53:19.195Z,12.50
2019-03-30T20:55:47.623Z,12.30
2019-03-30T20:58:16.039Z,12.10
2019-03-30T21:00:44.838Z,12.00
2019-03-30T21:03:13.258Z,12.00
2019-03-30T21:05:41.702Z,11.80
2019-03-30T21:08:10.217Z,11.60
2019-03-30T21:10:38.640Z,11.40
2019-03-30T21:13:07.114Z,11.50
2019-03-30T21:15:35.547Z,11.40
2019-03-30T21:18:03.995Z,11.30
2019-03-30T21:20:51.780Z,11.30
2019-03-30T21:23:21.867Z,11.20
2019-03-30T21:25:50.302Z,11.10
2019-03-30T21:28:18.740Z,11.10
2019-03-30T21:30:49.056Z,11.10
2019-03-30T21:33:17.473Z,11.00
2019-03-30T21:35:45.919Z,11.10
2019-03-30T21:38:14.434Z,10.90
2019-03-30T21:40:43.600Z,10.80
2019-03-30T21:43:12.024Z,10.80
2019-03-30T21:45:40.465Z,10.80
2019-03-30T21:48:08.984Z,10.80
2019-03-30T21:50:37.434Z,10.80
2019-03-30T21:53:05.851Z,10.80
2019-03-30T21:55:34.304Z,10.80
2019-03-30T21:58:02.736Z,10.90
2019-03-30T22:00:40.869Z,10.80
2019-03-30T22:03:09.442Z,10.80
2019-03-30T22:05:37.881Z,10.80
2019-03-30T22:08:06.575Z,11.00
2019-03-30T22:10:35.102Z,10.70
2019-03-30T22:13:03.987Z,10.60
2019-03-30T22:15:32.426Z,10.50
2019-03-30T22:18:01.565Z,10.50
2019-03-30T22:20:30.047Z,10.50
2019-03-30T22:22:58.500Z,10.30
2019-03-30T22:25:26.929Z,10.50
2019-03-30T22:27:55.348Z,10.30
2019-03-30T22:30:25.319Z,10.30
2019-03-30T22:32:53.982Z,10.40
2019-03-30T22:35:22.427Z,10.30
2019-03-30T22:37:50.866Z,10.10
2019-03-30T22:40:19.400Z,10.20
2019-03-30T22:42:47.903Z,10.00
2019-03-30T22:45:16.337Z,9.90
2019-03-30T22:47:44.770Z,9.90
2019-03-30T22:50:13.851Z,9.90
2019-03-30T22:52:42.278Z,9.70
2019-03-30T22:55:10.938Z,9.50
2019-03-30T22:57:39.406Z,9.40
2019-03-30T23:00:12.668Z,9.50
2019-03-30T23:02:41.100Z,9.40
2019-03-30T23:05:09.976Z,9.40
2019-03-30T23:07:38.424Z,9.40
2019-03-30T23:10:07.465Z,9.40
2019-03-30T23:12:35.902Z,9.70
2019-03-30T23:15:05.259Z,9.40
2019-03-30T23:17:33.677Z,9.40
2019-03-30T23:20:02.097Z,9.30
2019-03-30T23:22:30.527Z,9.30
2019-03-30T23:24:58.947Z,9.30
2019-03-30T23:27:27.377Z,9.40
2019-03-30T23:29:55.799Z,9.50
2019-03-30T23:32:24.221Z,9.50
2019-03-30T23:34:52.628Z,9.40
2019-03-30T23:37:21.061Z,9.40
2019-03-30T23:39:49.483Z,9.20
2019-03-30T23:42:17.921Z,9.10
2019-03-30T23:44:46.346Z,9.10
2019-03-30T23:47:14.778Z,9.20
2019-03-30T23:49:43.201Z,9.20
2019-03-30T23:52:11.729Z,8.90
2019-03-30T23:54:40.145Z,9.00
2019-03-30T23:57:08.589Z,8.90
2019-03-30T23:59:37.038Z,8.50
